Terminal Aerodrome Forecast
Issued by NWS Knoxville/Tri Cities, TN

Home | Current Version | Previous Version | Text Only | Print | Product List | Glossary On
Versions: 1 2 3 4 5 6 7 8 9 10 11 12 13 14 15 16 17 18 19 20 21 22 23 24 25 26 27 28 29 30
946
FTUS44 KMRX 082127 AAB
TAFTRI
TAF AMD
KTRI 082127Z 0821/0918 26010G20KT 6SM -SHSN BR OVC035
      TEMPO 0821/0824 2SM -SN BR BKN015
     FM090000 26010KT 5SM -SHSN BR OVC020
      TEMPO 0903/0906 2SM -SN OVC007=

USA.gov is the U.S. government's official web portal to all federal, state and local government web resources and services.